Time;durP1;ratioP1;P1;durP2;ratioP2;P2;SDS_P1;SDS_P2;PMS_P1;PMS_P2;Temp;Humidity;BMP_temperature;BMP_pressure;BME280_temperature;BME280_humidity;BME280_pressure;Samples;Min_cycle;Max_cycle;Signal;HPM_P1;HPM_P2
2023/10/27 02:02:53;;;;;;;7.13;5.40;;;;;;;6.12;100.00;93597.31;7430515;19;20393;-92
2023/10/27 02:05:20;;;;;;;5.67;5.17;;;;;;;6.82;100.00;93697.88;7428174;19;20412;-92
2023/10/27 02:07:47;;;;;;;5.83;5.33;;;;;;;6.37;100.00;93634.22;7428565;19;20392;-92
2023/10/27 02:10:14;;;;;;;7.03;6.33;;;;;;;6.42;100.00;93636.50;7428880;19;20424;-92
2023/10/27 02:12:41;;;;;;;6.43;5.07;;;;;;;6.96;100.00;93718.22;7431231;19;20390;-91
2023/10/27 02:15:09;;;;;;;11.20;6.30;;;;;;;6.77;100.00;93682.44;7428512;19;20389;-90
2023/10/27 02:17:38;;;;;;;6.60;5.80;;;;;;;6.73;100.00;93685.06;7397060;19;20938;-90
2023/10/27 02:20:06;;;;;;;8.23;6.50;;;;;;;6.90;100.00;93702.03;7393975;19;20480;-91
2023/10/27 02:22:33;;;;;;;5.80;4.63;;;;;;;5.89;100.00;93552.94;7396914;19;20373;-90
2023/10/27 02:25:02;;;;;;;6.60;5.50;;;;;;;6.27;100.00;93600.03;7395540;19;20405;-90
2023/10/27 02:27:31;;;;;;;7.97;5.87;;;;;;;6.80;100.00;93677.22;7397403;19;20394;-90
2023/10/27 02:29:58;;;;;;;7.00;6.10;;;;;;;6.69;100.00;93639.66;7394486;19;20428;-90
2023/10/27 02:32:25;;;;;;;8.07;4.70;;;;;;;6.43;100.00;93611.78;7396793;19;20384;-90
2023/10/27 02:34:52;;;;;;;7.10;4.67;;;;;;;7.04;100.00;93704.72;7392476;19;20365;-90
2023/10/27 02:37:20;;;;;;;8.70;5.17;;;;;;;7.20;100.00;93732.56;7397159;19;20386;-90
2023/10/27 02:39:48;;;;;;;5.47;4.97;;;;;;;5.91;100.00;93547.38;7394383;19;20421;-89
2023/10/27 02:42:14;;;;;;;5.97;4.60;;;;;;;5.98;100.00;93554.50;7397812;19;20384;-90
2023/10/27 02:44:42;;;;;;;5.50;5.00;;;;;;;6.74;100.00;93686.56;7395754;19;20391;-91
2023/10/27 02:47:09;;;;;;;5.10;4.70;;;;;;;5.97;100.00;93566.13;7392170;19;20388;-90
2023/10/27 02:49:36;;;;;;;9.90;5.40;;;;;;;5.95;100.00;93569.13;7390640;19;20412;-90
2023/10/27 02:52:03;;;;;;;12.47;5.60;;;;;;;7.01;100.00;93720.47;7392935;19;20377;-90
2023/10/27 02:54:30;;;;;;;6.00;5.40;;;;;;;6.23;100.00;93613.88;7392888;19;20794;-90
2023/10/27 02:56:57;;;;;;;6.43;5.83;;;;;;;6.84;100.00;93692.25;7400002;19;20392;-91
2023/10/27 02:59:25;;;;;;;9.33;4.67;;;;;;;4.99;100.00;93432.88;7398960;19;20444;-91
2023/10/27 03:01:54;;;;;;;6.17;5.00;;;;;;;6.59;100.00;93666.59;7399436;19;20902;-91
2023/10/27 03:04:21;;;;;;;8.90;5.00;;;;;;;6.94;100.00;93702.78;7403066;19;20451;-90
2023/10/27 03:06:48;;;;;;;5.90;4.37;;;;;;;5.78;100.00;93546.13;7399620;19;20387;-91
2023/10/27 03:09:15;;;;;;;6.30;4.70;;;;;;;5.83;100.00;93572.00;7398127;19;20404;-90
2023/10/27 03:11:42;;;;;;;7.17;4.60;;;;;;;4.80;100.00;93409.53;7399448;19;20375;-90
2023/10/27 03:14:09;;;;;;;7.00;4.83;;;;;;;6.66;100.00;93690.25;7397615;19;20392;-91
2023/10/27 03:16:36;;;;;;;6.40;4.80;;;;;;;6.47;100.00;93659.78;7399148;19;20383;-91
2023/10/27 03:19:04;;;;;;;7.43;4.43;;;;;;;6.45;100.00;93659.38;7397953;19;20464;-90
2023/10/27 03:21:32;;;;;;;8.60;4.57;;;;;;;5.41;100.00;93504.28;7400749;19;20939;-90
2023/10/27 03:23:59;;;;;;;5.33;4.23;;;;;;;6.09;100.00;93602.53;7399275;19;20361;-90
2023/10/27 03:26:26;;;;;;;15.93;4.67;;;;;;;6.90;100.00;93709.16;7399086;19;20917;-90
2023/10/27 03:28:53;;;;;;;5.80;3.70;;;;;;;5.92;100.00;93567.97;7397841;19;20927;-90
2023/10/27 03:31:20;;;;;;;6.47;4.77;;;;;;;6.41;100.00;93657.84;7402240;19;20377;-90
2023/10/27 03:33:47;;;;;;;5.63;5.00;;;;;;;6.83;100.00;93715.13;7422947;19;20389;-90
2023/10/27 03:36:15;;;;;;;6.60;4.30;;;;;;;6.97;100.00;93730.97;7429389;19;20376;-91
2023/10/27 03:38:44;;;;;;;4.77;4.30;;;;;;;6.88;100.00;93716.66;7426674;19;20448;-90
2023/10/27 03:41:11;;;;;;;6.73;4.20;;;;;;;6.51;100.00;93668.41;7401554;19;20387;-91
2023/10/27 03:43:39;;;;;;;7.70;3.43;;;;;;;6.74;100.00;93667.44;7398461;19;20400;-91
2023/10/27 03:46:07;;;;;;;9.53;3.40;;;;;;;6.91;100.00;93698.28;7401317;19;20400;-90
2023/10/27 03:48:35;;;;;;;6.17;3.80;;;;;;;7.15;100.00;93723.19;7401187;19;20433;-91
2023/10/27 03:51:05;;;;;;;6.63;3.83;;;;;;;6.85;100.00;93688.50;7400904;19;20409;-91
2023/10/27 03:53:32;;;;;;;6.60;4.10;;;;;;;7.22;100.00;93756.63;7401693;19;20372;-91
2023/10/27 03:55:59;;;;;;;9.20;4.20;;;;;;;6.84;100.00;93705.38;7401924;19;20392;-90
2023/10/27 03:58:27;;;;;;;3.50;2.63;;;;;;;6.58;100.00;93665.09;7402976;19;20365;-90
2023/10/27 04:01:12;;;;;;;9.63;3.57;;;;;;;6.90;100.00;93694.16;7402967;19;21203;-91
2023/10/27 04:03:39;;;;;;;4.23;2.90;;;;;;;6.71;100.00;93671.56;7400339;19;20385;-90
2023/10/27 04:06:06;;;;;;;4.93;2.97;;;;;;;7.01;100.00;93718.59;7401018;19;20392;-91
2023/10/27 04:08:34;;;;;;;7.67;3.10;;;;;;;7.24;100.00;93728.84;7396740;19;20403;-92
2023/10/27 04:11:01;;;;;;;7.03;3.30;;;;;;;6.73;100.00;93666.69;7400961;19;20728;-91
2023/10/27 04:13:28;;;;;;;7.17;3.23;;;;;;;7.35;100.00;93739.44;7398308;19;21054;-90
2023/10/27 04:15:55;;;;;;;7.87;3.67;;;;;;;7.15;100.00;93717.16;7400784;19;20398;-89
2023/10/27 04:18:22;;;;;;;6.53;3.80;;;;;;;6.97;100.00;93702.09;7398956;19;20368;-90
2023/10/27 04:20:49;;;;;;;6.00;3.97;;;;;;;7.14;100.00;93718.28;7400471;19;20360;-91
2023/10/27 04:23:16;;;;;;;5.30;3.33;;;;;;;7.20;100.00;93735.19;7397046;19;20387;-90
2023/10/27 04:25:43;;;;;;;8.90;4.63;;;;;;;7.17;100.00;93728.81;7423036;19;20934;-91
2023/10/27 04:28:10;;;;;;;27.90;19.63;;;;;;;6.96;100.00;93694.56;7400390;19;20392;-90
2023/10/27 04:30:38;;;;;;;19.70;17.80;;;;;;;7.07;100.00;93701.34;7397858;19;20428;-90
2023/10/27 04:33:05;;;;;;;10.17;5.30;;;;;;;6.92;100.00;93693.78;7398902;19;20396;-90
2023/10/27 04:35:33;;;;;;;5.60;5.10;;;;;;;6.22;100.00;93598.50;7400111;19;20396;-90
2023/10/27 04:38:00;;;;;;;10.70;4.70;;;;;;;7.30;100.00;93751.03;7398843;19;20391;-90
2023/10/27 04:40:31;;;;;;;4.47;3.73;;;;;;;7.24;100.00;93752.50;7397483;19;20423;-90
2023/10/27 04:42:59;;;;;;;6.90;3.53;;;;;;;5.55;100.00;93507.00;7399290;19;20356;-90
2023/10/27 04:45:27;;;;;;;4.80;3.17;;;;;;;7.16;100.00;93758.09;7400680;19;20928;-90
2023/10/27 04:47:54;;;;;;;6.57;5.80;;;;;;;7.04;100.00;93728.38;7398664;19;20393;-90
2023/10/27 04:50:22;;;;;;;7.50;5.00;;;;;;;6.42;100.00;93660.13;7398210;19;20415;-91
2023/10/27 04:52:49;;;;;;;8.80;4.83;;;;;;;6.74;100.00;93702.31;7399007;19;20361;-91
2023/10/27 04:55:18;;;;;;;6.03;3.20;;;;;;;5.55;100.00;93512.25;7394651;19;20460;-90
2023/10/27 04:57:45;;;;;;;6.53;3.43;;;;;;;5.73;100.00;93554.31;7399309;19;20393;-91
2023/10/27 05:00:13;;;;;;;5.57;3.07;;;;;;;6.57;100.00;93681.22;7409123;19;20449;-90
2023/10/27 05:02:40;;;;;;;9.17;3.50;;;;;;;5.54;100.00;93550.06;7415987;19;20367;-91
2023/10/27 05:05:08;;;;;;;7.83;3.50;;;;;;;6.46;100.00;93679.25;7416836;19;20377;-91
2023/10/27 05:07:36;;;;;;;7.93;3.70;;;;;;;5.53;100.00;93541.44;7415702;19;20384;-91
2023/10/27 05:10:07;;;;;;;5.77;3.30;;;;;;;6.35;100.00;93662.69;7402993;19;20437;-91
2023/10/27 05:12:38;;;;;;;4.90;3.17;;;;;;;5.29;100.00;93494.84;7416041;19;20361;-91
2023/10/27 05:15:05;;;;;;;4.53;4.10;;;;;;;6.34;100.00;93663.06;7407045;19;20391;-91
2023/10/27 05:17:34;;;;;;;12.90;7.17;;;;;;;6.95;100.00;93743.72;7399860;19;20393;-91
2023/10/27 05:20:03;;;;;;;19.10;11.87;;;;;;;5.85;100.00;93582.84;7395823;19;20443;-91
2023/10/27 05:22:30;;;;;;;10.27;6.73;;;;;;;5.51;100.00;93537.69;7400361;19;20384;-91
2023/10/27 05:24:57;;;;;;;13.43;7.70;;;;;;;6.65;100.00;93691.38;7397468;19;20411;-91
2023/10/27 05:27:24;;;;;;;7.43;5.67;;;;;;;6.60;100.00;93675.22;7399025;19;20756;-91
2023/10/27 05:29:51;;;;;;;8.87;5.50;;;;;;;5.54;100.00;93516.00;7396446;19;20770;-91
2023/10/27 05:32:19;;;;;;;6.03;5.43;;;;;;;5.51;100.00;93493.16;7398666;19;20472;-91
2023/10/27 05:34:47;;;;;;;6.73;3.37;;;;;;;5.64;100.00;93497.72;7396661;19;20400;-91
2023/10/27 05:37:15;;;;;;;5.90;3.60;;;;;;;6.67;100.00;93635.88;7394811;19;20768;-90
2023/10/27 05:39:42;;;;;;;4.80;2.87;;;;;;;7.20;100.00;93717.56;7396360;19;20412;-91
2023/10/27 05:42:21;;;;;;;5.70;3.90;;;;;;;5.60;100.00;93467.34;7397810;19;20409;-90
2023/10/27 05:45:13;;;;;;;5.67;3.40;;;;;;;5.19;100.00;93454.34;7396337;19;20777;-91
2023/10/27 05:48:35;;;;;;;6.90;3.10;;;;;;;5.31;100.00;93482.88;7394553;19;20385;-90
2023/10/27 05:51:37;;;;;;;6.80;3.20;;;;;;;6.82;100.00;93724.13;7396269;19;20381;-92
2023/10/27 05:54:19;;;;;;;5.80;4.07;;;;;;;5.74;100.00;93580.16;7397794;19;20388;-91
2023/10/27 05:57:20;;;;;;;5.60;3.67;;;;;;;4.49;100.00;93404.75;7402591;19;20361;-91
2023/10/27 06:00:29;;;;;;;5.33;3.73;;;;;;;4.77;100.00;93433.03;7396746;19;20941;-91
2023/10/27 06:03:57;;;;;;;6.73;3.60;;;;;;;6.16;100.00;93658.44;7419331;19;20384;-88
2023/10/27 06:11:11;;;;;;;6.73;3.43;;;;;;;4.69;100.00;93453.19;7396133;19;20426;-92
2023/10/27 06:14:45;;;;;;;;;;;;;;;;;;;;;
2023/10/27 06:18:24;;;;;;;;;;;;;;;;;;;;;
2023/10/27 06:25:55;;;;;;;7.03;4.17;;;;;;;4.28;100.00;93416.50;7392189;19;20375;-90
2023/10/27 06:29:23;;;;;;;5.57;2.80;;;;;;;6.36;100.00;93713.28;7397959;19;21022;-92
2023/10/27 06:32:58;;;;;;;8.67;3.30;;;;;;;5.38;100.00;93562.66;7407069;19;20387;-91
2023/10/27 06:36:41;;;;;;;;;;;;;;;;;;;;;
2023/10/27 06:42:23;;;;;;;6.73;3.93;;;;;;;5.48;100.00;93562.00;7408175;19;20383;-92
2023/10/27 06:45:19;;;;;;;3.43;3.13;;;;;;;4.48;100.00;93419.69;7405285;19;20377;-92
2023/10/27 06:48:16;;;;;;;5.90;4.00;;;;;;;4.71;100.00;93456.94;7404897;19;20391;-92
2023/10/27 06:52:13;;;;;;;8.80;3.17;;;;;;;6.58;100.00;93733.34;7405277;19;20377;-92
2023/10/27 06:55:10;;;;;;;4.47;3.17;;;;;;;4.80;100.00;93459.25;7401095;19;20437;-92
2023/10/27 07:01:27;;;;;;;7.77;3.40;;;;;;;5.36;100.00;93563.00;7402639;19;20396;-92
2023/10/27 07:04:37;;;;;;;6.80;4.20;;;;;;;4.81;100.00;93476.47;7402113;19;20389;-92
2023/10/27 07:07:43;;;;;;;10.73;4.70;;;;;;;5.80;100.00;93612.78;7401801;19;20385;-92
2023/10/27 07:15:19;;;;;;;12.77;8.23;;;;;;;5.23;100.00;93531.09;7400654;19;20401;-92
2023/10/27 07:18:28;;;;;;;35.20;31.80;;;;;;;4.96;100.00;93511.38;7401954;19;20432;-92
2023/10/27 07:21:51;;;;;;;14.97;13.13;;;;;;;5.75;100.00;93620.25;7404541;19;20394;-91
2023/10/27 07:24:25;;;;;;;9.90;3.13;;;;;;;4.96;100.00;93538.31;7404049;19;20388;-92
2023/10/27 07:27:09;;;;;;;6.90;4.10;;;;;;;4.52;100.00;93480.63;7402562;19;20387;-92
2023/10/27 07:29:39;;;;;;;11.03;3.80;;;;;;;5.72;100.00;93661.00;7400123;19;20404;-91
2023/10/27 07:32:07;;;;;;;10.00;5.10;;;;;;;6.51;100.00;93786.50;7403510;19;20393;-92
2023/10/27 07:34:34;;;;;;;7.97;4.33;;;;;;;5.70;100.00;93665.88;7407019;19;20417;-91
2023/10/27 07:37:04;;;;;;;12.23;6.07;;;;;;;4.83;100.00;93552.75;7405114;19;20993;-91
2023/10/27 07:39:31;;;;;;;10.10;5.07;;;;;;;4.90;100.00;93547.59;7400306;19;20417;-93
2023/10/27 07:41:58;;;;;;;17.43;4.77;;;;;;;4.49;100.00;93470.91;7404975;19;20425;-92
2023/10/27 07:44:25;;;;;;;12.67;4.93;;;;;;;5.30;100.00;93625.44;7402229;19;20740;-93
2023/10/27 07:46:52;;;;;;;8.57;4.57;;;;;;;5.37;100.00;93613.53;7401133;19;20385;-92
2023/10/27 07:49:20;;;;;;;13.93;3.53;;;;;;;6.82;100.00;93831.78;7400781;19;20441;-92
2023/10/27 07:51:48;;;;;;;5.80;4.00;;;;;;;5.47;100.00;93646.91;7404596;19;20922;-92
2023/10/27 07:54:20;;;;;;;6.23;3.17;;;;;;;5.56;100.00;93645.53;7406099;19;20408;-93
2023/10/27 07:56:48;;;;;;;7.80;4.20;;;;;;;4.40;100.00;93476.41;7412826;19;20387;-92
2023/10/27 07:59:15;;;;;;;8.10;3.17;;;;;;;5.68;100.00;93651.63;7408927;19;20416;-92
2023/10/27 08:01:43;;;;;;;5.23;3.10;;;;;;;5.82;100.00;93677.97;7404241;19;20388;-92
2023/10/27 08:04:10;;;;;;;9.43;3.50;;;;;;;5.61;100.00;93647.09;7401759;19;20385;-92
2023/10/27 08:06:37;;;;;;;7.93;4.17;;;;;;;5.66;100.00;93646.75;7403642;19;20376;-92
2023/10/27 08:09:04;;;;;;;6.23;4.40;;;;;;;5.54;100.00;93642.50;7402345;19;20409;-92
2023/10/27 08:11:32;;;;;;;7.70;3.60;;;;;;;4.71;100.00;93492.81;7403325;19;20942;-93
2023/10/27 08:13:59;;;;;;;5.33;3.70;;;;;;;5.14;100.00;93556.06;7401091;19;20368;-92
2023/10/27 08:16:26;;;;;;;13.20;3.90;;;;;;;6.02;100.00;93660.94;7401303;19;20415;-92
2023/10/27 08:18:54;;;;;;;8.10;3.50;;;;;;;5.18;100.00;93547.09;7400764;19;20410;-92
2023/10/27 08:21:21;;;;;;;9.30;3.57;;;;;;;5.81;100.00;93650.25;7403875;19;20384;-92
2023/10/27 08:23:49;;;;;;;3.17;2.63;;;;;;;6.60;100.00;93759.22;7401377;19;20377;-92
2023/10/27 08:26:16;;;;;;;7.47;2.60;;;;;;;6.60;100.00;93759.97;7399413;19;20371;-93
2023/10/27 08:28:43;;;;;;;7.47;2.80;;;;;;;5.92;100.00;93662.34;7400246;19;20401;-93
2023/10/27 08:31:11;;;;;;;8.60;3.50;;;;;;;6.61;100.00;93758.84;7400160;19;20377;-92
2023/10/27 08:33:40;;;;;;;7.47;2.83;;;;;;;4.89;100.00;93506.06;7401080;19;20381;-92
2023/10/27 08:36:08;;;;;;;6.43;3.60;;;;;;;6.64;100.00;93767.88;7397190;19;20389;-93
2023/10/27 08:38:35;;;;;;;3.57;2.43;;;;;;;4.84;100.00;93501.16;7412377;19;20416;-91
2023/10/27 08:41:05;;;;;;;4.77;2.37;;;;;;;6.26;100.00;93698.97;7427376;19;20392;-91
2023/10/27 08:43:32;;;;;;;3.93;2.17;;;;;;;6.04;100.00;93663.22;7430739;19;20396;-91
2023/10/27 08:46:06;;;;;;;4.90;2.70;;;;;;;5.17;100.00;93532.50;7418418;19;20408;-92
2023/10/27 08:48:36;;;;;;;5.43;2.67;;;;;;;6.25;100.00;93694.09;7401758;19;20384;-92
2023/10/27 08:51:07;;;;;;;6.27;3.50;;;;;;;5.88;100.00;93637.97;7399015;19;20391;-92
2023/10/27 08:53:43;;;;;;;10.00;8.60;;;;;;;6.39;100.00;93699.44;7400500;19;20397;-92
2023/10/27 08:56:14;;;;;;;9.70;5.50;;;;;;;5.93;100.00;93636.91;7398904;19;20392;-91
2023/10/27 08:58:50;;;;;;;3.67;3.17;;;;;;;5.09;100.00;93520.47;7397909;19;20419;-92
2023/10/27 09:01:18;;;;;;;5.77;2.53;;;;;;;6.04;100.00;93642.97;7399893;19;20438;-92
2023/10/27 09:04:05;;;;;;;4.53;4.23;;;;;;;7.37;100.00;93845.69;7398632;19;20373;-92
2023/10/27 09:06:37;;;;;;;2.33;2.13;;;;;;;5.41;100.00;93556.69;7402088;19;20397;-92
2023/10/27 09:09:12;;;;;;;4.23;1.80;;;;;;;6.07;100.00;93663.22;7401589;19;20448;-93
2023/10/27 09:11:41;;;;;;;5.33;2.40;;;;;;;7.40;100.00;93849.44;7399334;19;20384;-93
2023/10/27 09:14:30;;;;;;;4.70;2.17;;;;;;;4.95;100.00;93500.16;7400763;19;20360;-93
2023/10/27 09:17:10;;;;;;;4.53;1.83;;;;;;;7.25;100.00;93872.25;7398915;19;20385;-93
2023/10/27 09:19:39;;;;;;;3.37;2.70;;;;;;;6.07;100.00;93678.97;7396992;19;20441;-93
2023/10/27 09:22:18;;;;;;;2.77;2.43;;;;;;;6.94;100.00;93804.47;7405241;19;20417;-89
2023/10/27 09:24:51;;;;;;;3.67;1.70;;;;;;;4.88;100.00;93496.72;7430788;19;20396;-91
2023/10/27 09:27:27;;;;;;;5.40;4.00;;;;;;;5.11;100.00;93536.59;7429177;19;20393;-92
2023/10/27 09:29:54;;;;;;;4.97;2.20;;;;;;;5.79;100.00;93647.22;7396992;19;20966;-93
2023/10/27 09:32:26;;;;;;;1.93;1.80;;;;;;;5.40;100.00;93625.91;7399447;19;20385;-92
2023/10/27 09:35:13;;;;;;;6.93;3.83;;;;;;;6.25;100.00;93726.31;7397729;19;20385;-91
2023/10/27 09:37:41;;;;;;;1.87;1.40;;;;;;;5.64;100.00;93641.13;7397245;19;20387;-92
2023/10/27 09:40:11;;;;;;;1.97;1.00;;;;;;;5.88;100.00;93684.41;7396264;19;21077;-92
2023/10/27 09:42:40;;;;;;;2.37;2.07;;;;;;;6.17;100.00;93722.16;7397124;19;20391;-91
2023/10/27 09:45:11;;;;;;;2.80;2.10;;;;;;;6.11;100.00;93711.22;7399809;19;20773;-91
2023/10/27 09:47:45;;;;;;;2.90;2.03;;;;;;;6.83;100.00;93814.91;7397595;19;20359;-92
2023/10/27 09:50:20;;;;;;;4.60;1.90;;;;;;;5.01;100.00;93537.97;7394472;19;20400;-92
2023/10/27 09:52:50;;;;;;;2.17;1.70;;;;;;;4.96;100.00;93527.84;7398945;19;20380;-92
2023/10/27 09:55:19;;;;;;;1.20;1.10;;;;;;;6.04;100.00;93677.06;7417421;19;20386;-93
2023/10/27 09:57:47;;;;;;;1.57;1.40;;;;;;;6.12;100.00;93702.22;7398742;19;20914;-93
2023/10/27 10:00:34;;;;;;;5.90;1.63;;;;;;;6.88;100.00;93790.94;7395310;19;20446;-93
2023/10/27 10:03:03;;;;;;;2.03;1.33;;;;;;;6.22;100.00;93711.31;7394360;19;20376;-92
2023/10/27 10:06:09;;;;;;;2.30;1.60;;;;;;;6.04;100.00;93678.94;7395720;19;20377;-93
2023/10/27 10:08:36;;;;;;;1.73;1.63;;;;;;;6.12;100.00;93690.97;7427489;19;20451;-88
2023/10/27 10:11:19;;;;;;;4.23;2.67;;;;;;;6.26;100.00;93695.59;7432024;19;20428;-89
2023/10/27 10:13:49;;;;;;;4.20;2.73;;;;;;;5.11;100.00;93527.97;7426552;19;20360;-89
2023/10/27 10:16:17;;;;;;;2.63;1.40;;;;;;;6.26;100.00;93695.59;7427073;19;20397;-89
2023/10/27 10:18:50;;;;;;;2.80;1.80;;;;;;;7.61;100.00;93883.75;7430423;19;20411;-90
2023/10/27 10:21:38;;;;;;;3.27;2.57;;;;;;;6.00;100.00;93657.16;7427512;19;20392;-90
2023/10/27 10:24:12;;;;;;;2.17;1.97;;;;;;;6.40;100.00;93712.19;7419794;19;20385;-91
2023/10/27 10:27:11;;;;;;;3.67;1.40;;;;;;;7.57;100.00;93885.59;7408977;19;20384;-92
2023/10/27 10:29:46;;;;;;;2.10;1.47;;;;;;;7.59;100.00;93882.59;7393041;19;20447;-92
2023/10/27 10:32:34;;;;;;;1.00;1.00;;;;;;;6.06;100.00;93674.09;7398116;19;20364;-92
2023/10/27 10:35:27;;;;;;;2.40;2.20;;;;;;;6.38;100.00;93709.19;7396190;19;20468;-92
2023/10/27 10:38:23;;;;;;;4.63;1.23;;;;;;;7.13;100.00;93824.50;7396712;19;20372;-92
2023/10/27 10:40:59;;;;;;;3.63;1.23;;;;;;;5.25;100.00;93549.81;7395109;19;20949;-92
2023/10/27 10:43:33;;;;;;;2.80;0.90;;;;;;;5.21;100.00;93556.13;7397278;19;20381;-92
2023/10/27 10:46:03;;;;;;;2.83;1.17;;;;;;;6.59;100.00;93737.47;7407095;19;20371;-92
2023/10/27 10:48:33;;;;;;;1.17;1.00;;;;;;;6.98;100.00;93792.13;7397563;19;20401;-91
2023/10/27 10:51:11;;;;;;;1.60;1.03;;;;;;;6.24;100.00;93693.34;7396051;19;20401;-92
2023/10/27 10:53:38;;;;;;;1.70;1.60;;;;;;;6.20;100.00;93676.81;7394709;19;20381;-93
2023/10/27 10:56:07;;;;;;;2.23;1.70;;;;;;;6.20;100.00;93666.31;7395597;19;20392;-94
2023/10/27 10:58:36;;;;;;;1.37;1.27;;;;;;;6.35;100.00;93685.56;7397793;19;20381;-92
2023/10/27 11:01:19;;;;;;;1.77;1.40;;;;;;;5.70;100.00;93597.72;7396888;19;20924;-92
2023/10/27 11:03:51;;;;;;;7.07;5.67;;;;;;;5.46;100.00;93556.34;7394772;19;20371;-92
2023/10/27 11:06:29;;;;;;;33.80;26.40;;;;;;;5.14;100.00;93537.72;7395502;19;20395;-89
2023/10/27 11:09:06;;;;;;;21.73;19.20;;;;;;;5.12;100.00;93514.53;7394179;19;20412;-89
2023/10/27 11:11:57;;;;;;;37.30;29.60;;;;;;;5.04;100.00;93503.22;7392904;19;20837;-92
2023/10/27 11:14:47;;;;;;;33.50;25.70;;;;;;;5.96;100.00;93630.16;7395962;19;20384;-92
2023/10/27 11:17:54;;;;;;;55.97;39.40;;;;;;;6.01;100.00;93622.75;7399798;19;20399;-92
2023/10/27 11:20:44;;;;;;;22.07;17.97;;;;;;;6.52;100.00;93685.66;7400265;19;20444;-92
2023/10/27 11:23:37;;;;;;;;;;;;;;;;;;;;;
2023/10/27 11:26:25;;;;;;;4.73;4.33;;;;;;;6.61;100.00;93711.59;7400821;19;20401;-92
2023/10/27 11:29:49;;;;;;;1.53;1.30;;;;;;;7.64;100.00;93855.97;7403312;19;20421;-92
2023/10/27 11:32:43;;;;;;;1.67;1.37;;;;;;;6.05;100.00;93641.88;7403719;19;20735;-91
2023/10/27 11:35:48;;;;;;;1.50;1.40;;;;;;;7.36;100.00;93823.16;7403365;19;20946;-93
2023/10/27 11:38:15;;;;;;;1.50;1.40;;;;;;;5.24;100.00;93503.78;7403496;19;20458;-93
2023/10/27 11:40:43;;;;;;;1.40;1.23;;;;;;;6.52;100.00;93708.53;7401417;19;21209;-92
2023/10/27 11:43:10;;;;;;;1.67;1.57;;;;;;;6.50;100.00;93693.16;7403956;19;20384;-92
2023/10/27 11:45:37;;;;;;;2.30;1.20;;;;;;;6.11;100.00;93637.03;7425035;19;20392;-92
2023/10/27 11:48:04;;;;;;;1.10;1.00;;;;;;;6.22;100.00;93649.09;7406137;19;20385;-92
2023/10/27 11:50:32;;;;;;;1.13;1.03;;;;;;;6.61;100.00;93716.09;7402528;19;20433;-92
2023/10/27 11:52:59;;;;;;;1.47;1.00;;;;;;;6.18;100.00;93655.44;7403782;19;20368;-91
2023/10/27 11:55:26;;;;;;;1.20;0.80;;;;;;;5.93;100.00;93619.28;7404992;19;20725;-93
2023/10/27 11:57:53;;;;;;;2.13;1.37;;;;;;;6.17;100.00;93635.59;7403270;19;20381;-93
2023/10/27 12:00:21;;;;;;;2.20;1.43;;;;;;;6.40;100.00;93690.44;7398554;19;20412;-93
2023/10/27 12:02:58;;;;;;;1.83;1.13;;;;;;;5.15;100.00;93477.13;7402905;19;20422;-92
2023/10/27 12:05:31;;;;;;;1.00;0.83;;;;;;;5.20;100.00;93500.38;7401478;19;20786;-92
2023/10/27 12:08:00;;;;;;;1.53;1.40;;;;;;;6.35;100.00;93635.69;7403612;19;20906;-93
2023/10/27 12:10:28;;;;;;;1.90;1.20;;;;;;;5.68;100.00;93542.31;7398596;19;20428;-93
2023/10/27 12:12:59;;;;;;;1.37;1.27;;;;;;;5.34;100.00;93492.66;7402482;19;20377;-93
2023/10/27 12:15:41;;;;;;;1.63;1.10;;;;;;;6.28;100.00;93622.53;7401737;19;20464;-94
2023/10/27 12:18:20;;;;;;;2.00;1.23;;;;;;;5.38;100.00;93502.41;7400856;19;20389;-94
2023/10/27 12:21:09;;;;;;;1.90;1.70;;;;;;;5.50;100.00;93536.19;7402905;19;20412;-95
2023/10/27 12:23:38;;;;;;;1.53;1.43;;;;;;;5.56;100.00;93532.84;7400718;19;20752;-92
2023/10/27 12:26:24;;;;;;;1.90;1.53;;;;;;;5.59;100.00;93552.31;7402501;19;20925;-93
2023/10/27 12:29:28;;;;;;;1.40;1.30;;;;;;;5.52;100.00;93541.81;7401776;19;20376;-93
2023/10/27 12:32:23;;;;;;;1.23;1.13;;;;;;;7.70;100.00;93860.50;7400624;19;20395;-93
2023/10/27 12:35:37;;;;;;;;;;;;;;;;;;;;;
2023/10/27 12:39:25;;;;;;;2.70;2.00;;;;;;;6.17;100.00;93638.22;7414198;19;20405;-89
2023/10/27 12:42:23;;;;;;;9.33;1.03;;;;;;;6.49;100.00;93690.91;7434666;19;20396;-89
2023/10/27 12:44:57;;;;;;;1.93;0.93;;;;;;;5.11;100.00;93520.88;7398034;19;20364;-92
2023/10/27 12:47:25;;;;;;;1.77;1.40;;;;;;;5.36;100.00;93565.63;7398885;19;20392;-93
2023/10/27 12:50:10;;;;;;;4.70;2.23;;;;;;;5.22;100.00;93547.16;7398799;19;20801;-92
2023/10/27 12:52:48;;;;;;;2.77;1.80;;;;;;;6.60;100.00;93752.09;7399376;19;20420;-92
2023/10/27 12:55:18;;;;;;;2.93;2.00;;;;;;;6.20;100.00;93687.31;7401118;19;20424;-93
2023/10/27 12:57:46;;;;;;;1.70;1.50;;;;;;;5.49;100.00;93595.69;7398776;19;20403;-93
2023/10/27 13:00:17;;;;;;;1.43;1.30;;;;;;;6.16;100.00;93699.66;7397585;19;20440;-93
2023/10/27 13:03:05;;;;;;;1.70;1.50;;;;;;;6.35;100.00;93746.66;7400765;19;20756;-92
2023/10/27 13:05:49;;;;;;;4.10;1.07;;;;;;;5.45;100.00;93602.75;7403359;19;20915;-92
2023/10/27 13:08:17;;;;;;;1.23;1.10;;;;;;;5.26;100.00;93595.09;7402619;19;20385;-93
2023/10/27 13:10:47;;;;;;;1.17;1.07;;;;;;;5.07;100.00;93566.44;7401553;19;20377;-93
2023/10/27 13:13:16;;;;;;;1.10;0.93;;;;;;;6.18;100.00;93702.66;7405157;19;20380;-93
2023/10/27 13:15:47;;;;;;;1.60;1.50;;;;;;;6.73;100.00;93784.81;7403591;19;20373;-93
2023/10/27 13:18:47;;;;;;;2.03;1.90;;;;;;;6.10;100.00;93682.72;7402765;19;20432;-92
2023/10/27 13:21:44;;;;;;;1.50;1.40;;;;;;;7.36;100.00;93859.94;7401972;19;20365;-94
2023/10/27 13:24:24;;;;;;;2.13;1.93;;;;;;;6.50;100.00;93729.13;7401340;19;20376;-94
2023/10/27 13:30:08;;;;;;;1.83;1.73;;;;;;;5.64;100.00;93592.06;7397384;19;20965;-93
2023/10/27 13:33:11;;;;;;;3.80;1.17;;;;;;;8.52;100.00;93933.78;7402545;19;20776;-93
2023/10/27 13:40:03;;;;;;;1.57;1.30;;;;;;;7.42;100.00;93792.00;7392746;19;21067;-90
2023/10/27 13:42:30;;;;;;;1.07;0.90;;;;;;;8.09;100.00;93925.72;7395043;19;20412;-91
2023/10/27 13:58:04;;;;;;;1.97;1.47;;;;;;;6.48;100.00;93747.13;7402348;19;20405;-91
2023/10/27 14:01:19;;;;;;;2.13;1.20;;;;;;;7.93;100.00;93964.72;7401618;19;20377;-92
2023/10/27 14:04:11;;;;;;;4.37;1.33;;;;;;;5.70;100.00;93659.88;7408564;19;20380;-92
2023/10/27 14:06:57;;;;;;;1.93;1.60;;;;;;;7.92;100.00;94000.03;7411990;19;20393;-91
2023/10/27 14:09:55;;;;;;;1.43;1.10;;;;;;;5.76;100.00;93674.19;7412091;19;20432;-90
2023/10/27 14:20:22;;;;;;;3.77;1.80;;;;;;;6.30;100.00;93788.97;7391620;19;20440;-92
2023/10/27 14:23:51;;;;;;;1.77;1.50;;;;;;;5.76;100.00;93701.13;7401219;19;20368;-91
2023/10/27 14:27:08;;;;;;;1.33;1.23;;;;;;;8.19;100.00;94022.38;7437988;19;20484;-91
2023/10/27 14:31:40;;;;;;;4.10;2.37;;;;;;;6.38;100.00;93771.41;7440544;19;20465;-91
2023/10/27 17:03:22;;;;;;;4.00;2.33;;;;;;;7.09;100.00;94084.56;7387480;19;20499;-93
2023/10/27 17:10:54;;;;;;;;;;;;;;;;;;;;;
2023/10/27 17:14:43;;;;;;;;;;;;;;;;;;;;;
2023/10/27 17:18:28;;;;;;;7.10;6.50;;;;;;;7.50;100.00;94180.00;7401431;19;20376;-94
2023/10/27 17:21:44;;;;;;;14.53;11.27;;;;;;;6.59;100.00;94038.56;7398631;19;20482;-94
2023/10/27 17:25:03;;;;;;;5.73;4.83;;;;;;;7.61;100.00;94183.50;7401356;19;20384;-93
2023/10/27 17:28:02;;;;;;;9.30;8.17;;;;;;;5.38;100.00;93863.91;7410540;19;20442;-93
2023/10/27 17:30:54;;;;;;;2.40;1.63;;;;;;;7.61;100.00;94194.03;7413174;19;20396;-94
2023/10/27 18:06:17;;;;;;;3.83;3.10;;;;;;;7.56;100.00;94227.75;7406049;19;20416;-95
2023/10/27 18:09:09;;;;;;;2.47;2.13;;;;;;;7.48;100.00;94198.00;7429213;19;20385;-96
2023/10/27 18:45:11;;;;;;;3.13;2.93;;;;;;;5.48;100.00;93898.09;7401277;19;20401;-93
2023/10/27 18:48:08;;;;;;;4.37;3.23;;;;;;;5.58;100.00;93907.22;7399197;19;20464;-93
2023/10/27 18:51:11;;;;;;;3.60;2.43;;;;;;;7.70;100.00;94223.41;7400611;19;20376;-93
2023/10/27 18:53:41;;;;;;;4.33;3.00;;;;;;;7.61;100.00;94233.47;7398684;19;20396;-94
2023/10/27 19:16:09;;;;;;;2.17;1.77;;;;;;;6.03;100.00;93987.63;7397094;19;20364;-90
2023/10/27 19:19:21;;;;;;;2.20;2.10;;;;;;;7.70;100.00;94241.81;7392080;19;20388;-90
2023/10/27 19:21:49;;;;;;;4.30;1.80;;;;;;;6.22;100.00;94023.47;7392772;19;20371;-90
2023/10/27 19:24:16;;;;;;;4.47;1.37;;;;;;;6.72;100.00;94095.00;7392916;19;20369;-90
2023/10/27 19:26:43;;;;;;;2.20;1.40;;;;;;;5.62;100.00;93940.22;7395454;19;20398;-90